WI13 weather

Jennie'S Field
Wisconsin Rapids, Wisconsin, United States

Public forecast

Using degrees Fahrenheit for public forecast. Weather courtesy of forecast.io.

Closest aviation weather report (METAR) to Jennie'S Field

Closest report is Alexander Field South Wood County Airport, 6.3 nm (11.7 km) N. Retrieved 2019/10/18 00:54 UTC (9 minutes ago):

KISW 180054Z AUTO 00000KT 10SM CLR 03/02 A3001 RMK AO2 SLP170 T00330022

Closest aviation forecast (TAF) to Jennie'S Field

Forecast is more than 6 hours old.

Closest forecast is Volk Field, 26.0 nm (48.2 km) SW. Retrieved 2019/10/17 17:06 UTC (8 hours ago):

TAF TAF KVOK 171700Z 1717/1823 VRB06KT 9999 BKN020 BKN040 QNH3000INS BECMG 1723/1724 VRB06KT 9999 SCT025 QNH2999INS BECMG 1808/1809 14009KT 9999 SCT015 QNH2998INS BECMG 1815/1816 16010G15KT 9999 SKC QNH2973INS TX10/1817Z TN03/1811Z LAST NO AMDS AFT 1721 NEXT 1809